PWSweather.com
Personal Weather Stations
Station Observations
K4FB1
Clubhouse Heritage, Lakeland, FL 33812

Clubhouse HeritageLakeland, FL 33812

Lat: 27.969224, Lon: -81.897769

Elevation: 145

Station Type: Davis Vantage Pro2

http://www.ClubhouseWX.com

High Low Average
Temperature 73.9°F23.3°C 61.1°F16.2°C 67.5°F19.7°C
Dew Point 63.9°F17.7°C -40.3°F-40.2°C 14.9°F-9.5°C
Winds 7.0 mph 11.3 kmh Calm Calm 2.0 mph E3.2 kmh E
Wind Gusts 15.0 mph24.1 kmh -- 7.0 mph11.3 kmh
Humidity 72% 0% 33%
Pressure 30.29 in1025.7 mb 30.19 in1022.4 mb -
Precipitation 0.65 in16.5 mm - -
Hour Temp Dew Point Humidity Winds Wind Gusts Pressure Precip Precip Rate Daily Precip Total
12:00 AM 65.9°F18.8°C 56.6°F13.7°C 72% 3.0 mph ENE4.8 kmh ENE 8.0 mph12.9 kmh 30.29 in1025.7 mb 0.00 in0.0 mm 0.00 in0.0 mm 0.00 in0.0 mm
12:05 AM 66.1°F18.9°C 56.8°F13.8°C 72% 4.0 mph E6.4 kmh E 13.0 mph20.9 kmh 30.29 in1025.7 mb 0.00 in0.0 mm 0.00 in0.0 mm 0.00 in0.0 mm
12:10 AM 66.3°F19.1°C 57.0°F13.9°C 72% 5.0 mph ENE8.0 kmh ENE 13.0 mph20.9 kmh 30.29 in1025.7 mb 0.00 in0.0 mm 0.00 in0.0 mm 0.00 in0.0 mm
12:15 AM 66.4°F19.1°C 57.1°F13.9°C 72% 3.0 mph NE4.8 kmh NE 8.0 mph12.9 kmh 30.29 in1025.7 mb 0.00 in0.0 mm 0.00 in0.0 mm 0.00 in0.0 mm
12:20 AM 66.4°F19.1°C 56.7°F13.7°C 71% 3.0 mph NE4.8 kmh NE 9.0 mph14.5 kmh 30.29 in1025.7 mb 0.00 in0.0 mm 0.00 in0.0 mm 0.00 in0.0 mm
12:25 AM 66.5°F19.2°C 57.2°F14.0°C 72% 4.0 mph ENE6.4 kmh ENE 10.0 mph16.1 kmh 30.29 in1025.7 mb 0.00 in0.0 mm 0.00 in0.0 mm 0.00 in0.0 mm
12:30 AM 66.6°F19.2°C 57.3°F14.1°C 72% 4.0 mph ENE6.4 kmh ENE 10.0 mph16.1 kmh 30.29 in1025.7 mb 0.00 in0.0 mm 0.00 in0.0 mm 0.00 in0.0 mm
12:35 AM 66.6°F19.2°C 57.3°F14.1°C 72% 3.0 mph ENE4.8 kmh ENE 9.0 mph14.5 kmh 30.29 in1025.7 mb 0.00 in0.0 mm 0.00 in0.0 mm 0.00 in0.0 mm
12:40 AM 66.6°F19.2°C 57.3°F14.1°C 72% 3.0 mph ENE4.8 kmh ENE 10.0 mph16.1 kmh 30.29 in1025.7 mb 0.00 in0.0 mm 0.00 in0.0 mm 0.00 in0.0 mm
12:45 AM 66.7°F19.3°C 57.4°F14.1°C 72% 3.0 mph ENE4.8 kmh ENE 10.0 mph16.1 kmh 30.28 in1025.4 mb 0.00 in0.0 mm 0.00 in0.0 mm 0.00 in0.0 mm
12:50 AM 66.8°F19.3°C 57.5°F14.2°C 72% 5.0 mph E8.0 kmh E 15.0 mph24.1 kmh 30.28 in1025.4 mb 0.00 in0.0 mm 0.00 in0.0 mm 0.00 in0.0 mm
12:55 AM 66.9°F19.4°C 57.6°F14.2°C 72% 5.0 mph E8.0 kmh E 15.0 mph24.1 kmh 30.28 in1025.4 mb 0.00 in0.0 mm 0.00 in0.0 mm 0.00 in0.0 mm
01:00 AM 67.0°F19.4°C 57.7°F14.3°C 72% 4.0 mph E6.4 kmh E 11.0 mph17.7 kmh 30.28 in1025.4 mb 0.00 in0.0 mm 0.00 in0.0 mm 0.00 in0.0 mm
01:05 AM 67.0°F19.4°C 57.7°F14.3°C 72% 4.0 mph E6.4 kmh E 11.0 mph17.7 kmh 30.28 in1025.4 mb 0.00 in0.0 mm 0.00 in0.0 mm 0.00 in0.0 mm
01:10 AM 67.0°F19.4°C 57.3°F14.1°C 71% 5.0 mph E8.0 kmh E 12.0 mph19.3 kmh 30.27 in1025.1 mb 0.00 in0.0 mm 0.00 in0.0 mm 0.00 in0.0 mm
01:15 AM 67.1°F19.5°C 57.8°F14.3°C 72% 4.0 mph ENE6.4 kmh ENE 12.0 mph19.3 kmh 30.27 in1025.1 mb 0.00 in0.0 mm 0.00 in0.0 mm 0.00 in0.0 mm
01:20 AM 67.1°F19.5°C 57.8°F14.3°C 72% 3.0 mph ENE4.8 kmh ENE 7.0 mph11.3 kmh 30.27 in1025.1 mb 0.00 in0.0 mm 0.00 in0.0 mm 0.00 in0.0 mm
01:25 AM 67.2°F19.6°C 57.9°F14.4°C 72% 4.0 mph ENE6.4 kmh ENE 11.0 mph17.7 kmh 30.27 in1025.1 mb 0.00 in0.0 mm 0.00 in0.0 mm 0.00 in0.0 mm
01:30 AM 67.2°F19.6°C 57.9°F14.4°C 72% 4.0 mph ENE6.4 kmh ENE 13.0 mph20.9 kmh 30.27 in1025.1 mb 0.00 in0.0 mm 0.00 in0.0 mm 0.00 in0.0 mm
01:35 AM 67.2°F19.6°C 57.9°F14.4°C 72% 4.0 mph ENE6.4 kmh ENE 13.0 mph20.9 kmh 30.27 in1025.1 mb 0.00 in0.0 mm 0.00 in0.0 mm 0.00 in0.0 mm
01:40 AM 67.1°F19.5°C 57.8°F14.3°C 72% 4.0 mph ENE6.4 kmh ENE 11.0 mph17.7 kmh 30.27 in1025.1 mb 0.00 in0.0 mm 0.00 in0.0 mm 0.00 in0.0 mm
01:45 AM 67.0°F19.4°C 57.7°F14.3°C 72% 3.0 mph ENE4.8 kmh ENE 8.0 mph12.9 kmh 30.27 in1025.1 mb 0.00 in0.0 mm 0.00 in0.0 mm 0.00 in0.0 mm
01:50 AM 66.8°F19.3°C 57.5°F14.2°C 72% 2.0 mph E3.2 kmh E 8.0 mph12.9 kmh 30.27 in1025.1 mb 0.00 in0.0 mm 0.00 in0.0 mm 0.00 in0.0 mm
01:55 AM 66.7°F19.3°C 57.4°F14.1°C 72% 2.0 mph E3.2 kmh E 8.0 mph12.9 kmh 30.27 in1025.1 mb 0.00 in0.0 mm 0.00 in0.0 mm 0.00 in0.0 mm
02:00 AM 66.7°F19.3°C 57.4°F14.1°C 72% 2.0 mph ENE3.2 kmh ENE 7.0 mph11.3 kmh 30.27 in1025.1 mb 0.00 in0.0 mm 0.00 in0.0 mm 0.00 in0.0 mm
02:05 AM 66.6°F19.2°C 57.3°F14.1°C 72% 3.0 mph ENE4.8 kmh ENE 6.0 mph9.7 kmh 30.27 in1025.1 mb 0.00 in0.0 mm 0.00 in0.0 mm 0.00 in0.0 mm
02:10 AM 66.6°F19.2°C 57.3°F14.1°C 72% 2.0 mph E3.2 kmh E 7.0 mph11.3 kmh 30.27 in1025.1 mb 0.00 in0.0 mm 0.00 in0.0 mm 0.00 in0.0 mm
02:15 AM 66.5°F19.2°C 56.8°F13.8°C 71% 2.0 mph E3.2 kmh E 7.0 mph11.3 kmh 30.27 in1025.1 mb 0.00 in0.0 mm 0.00 in0.0 mm 0.00 in0.0 mm
02:20 AM 66.4°F19.1°C 56.7°F13.7°C 71% 2.0 mph E3.2 kmh E 9.0 mph14.5 kmh 30.27 in1025.1 mb 0.00 in0.0 mm 0.00 in0.0 mm 0.00 in0.0 mm
02:25 AM 66.4°F19.1°C 56.7°F13.7°C 71% 3.0 mph E4.8 kmh E 9.0 mph14.5 kmh 30.27 in1025.1 mb 0.00 in0.0 mm 0.00 in0.0 mm 0.00 in0.0 mm
02:30 AM 66.4°F19.1°C 56.7°F13.7°C 71% 3.0 mph E4.8 kmh E 9.0 mph14.5 kmh 30.26 in1024.7 mb 0.00 in0.0 mm 0.00 in0.0 mm 0.00 in0.0 mm
02:35 AM 66.5°F19.2°C 56.8°F13.8°C 71% 3.0 mph E4.8 kmh E 9.0 mph14.5 kmh 30.26 in1024.7 mb 0.00 in0.0 mm 0.00 in0.0 mm 0.00 in0.0 mm
02:40 AM 66.5°F19.2°C 56.8°F13.8°C 71% 3.0 mph E4.8 kmh E 11.0 mph17.7 kmh 30.26 in1024.7 mb 0.00 in0.0 mm 0.00 in0.0 mm 0.00 in0.0 mm
02:45 AM 66.4°F19.1°C 56.7°F13.7°C 71% 3.0 mph E4.8 kmh E 11.0 mph17.7 kmh 30.25 in1024.4 mb 0.00 in0.0 mm 0.00 in0.0 mm 0.00 in0.0 mm
02:50 AM 66.3°F19.1°C 56.6°F13.7°C 71% 4.0 mph E6.4 kmh E 11.0 mph17.7 kmh 30.25 in1024.4 mb 0.00 in0.0 mm 0.00 in0.0 mm 0.00 in0.0 mm
02:55 AM 66.1°F18.9°C 56.0°F13.3°C 70% 4.0 mph E6.4 kmh E 11.0 mph17.7 kmh 30.25 in1024.4 mb 0.00 in0.0 mm 0.00 in0.0 mm 0.00 in0.0 mm
03:00 AM 65.9°F18.8°C 55.8°F13.2°C 70% 3.0 mph E4.8 kmh E 10.0 mph16.1 kmh 30.25 in1024.4 mb 0.00 in0.0 mm 0.00 in0.0 mm 0.00 in0.0 mm
03:05 AM 65.8°F18.8°C 55.7°F13.2°C 70% 3.0 mph E4.8 kmh E 11.0 mph17.7 kmh 30.25 in1024.4 mb 0.00 in0.0 mm 0.00 in0.0 mm 0.00 in0.0 mm
03:10 AM 65.7°F18.7°C 55.2°F12.9°C 69% 4.0 mph E6.4 kmh E 11.0 mph17.7 kmh 30.24 in1024.0 mb 0.00 in0.0 mm 0.00 in0.0 mm 0.00 in0.0 mm
03:15 AM 65.7°F18.7°C 55.2°F12.9°C 69% 4.0 mph ESE6.4 kmh ESE 9.0 mph14.5 kmh 30.24 in1024.0 mb 0.00 in0.0 mm 0.00 in0.0 mm 0.00 in0.0 mm
03:20 AM 65.6°F18.7°C 54.8°F12.7°C 68% 3.0 mph ESE4.8 kmh ESE 6.0 mph9.7 kmh 30.24 in1024.0 mb 0.00 in0.0 mm 0.00 in0.0 mm 0.00 in0.0 mm
03:25 AM 65.7°F18.7°C 54.8°F12.7°C 68% 3.0 mph E4.8 kmh E 7.0 mph11.3 kmh 30.24 in1024.0 mb 0.00 in0.0 mm 0.00 in0.0 mm 0.00 in0.0 mm
03:30 AM 65.6°F18.7°C 54.8°F12.7°C 68% 3.0 mph E4.8 kmh E 7.0 mph11.3 kmh 30.24 in1024.0 mb 0.00 in0.0 mm 0.00 in0.0 mm 0.00 in0.0 mm
03:35 AM 65.6°F18.7°C 54.3°F12.4°C 67% 3.0 mph E4.8 kmh E 7.0 mph11.3 kmh 30.24 in1024.0 mb 0.00 in0.0 mm 0.00 in0.0 mm 0.00 in0.0 mm
03:40 AM 65.6°F18.7°C 54.3°F12.4°C 67% 2.0 mph E3.2 kmh E 7.0 mph11.3 kmh 30.23 in1023.7 mb 0.00 in0.0 mm 0.00 in0.0 mm 0.00 in0.0 mm
03:45 AM 65.6°F18.7°C 53.9°F12.2°C 66% 2.0 mph E3.2 kmh E 7.0 mph11.3 kmh 30.23 in1023.7 mb 0.00 in0.0 mm 0.00 in0.0 mm 0.00 in0.0 mm
03:50 AM 65.6°F18.7°C 53.9°F12.2°C 66% 3.0 mph E4.8 kmh E 12.0 mph19.3 kmh 30.23 in1023.7 mb 0.00 in0.0 mm 0.00 in0.0 mm 0.00 in0.0 mm
03:55 AM 65.7°F18.7°C 54.0°F12.2°C 66% 4.0 mph E6.4 kmh E 12.0 mph19.3 kmh 30.23 in1023.7 mb 0.00 in0.0 mm 0.00 in0.0 mm 0.00 in0.0 mm
04:00 AM 65.6°F18.7°C 53.9°F12.2°C 66% 3.0 mph ESE4.8 kmh ESE 8.0 mph12.9 kmh 30.23 in1023.7 mb 0.00 in0.0 mm 0.00 in0.0 mm 0.00 in0.0 mm
04:05 AM 65.6°F18.7°C 53.9°F12.2°C 66% 3.0 mph ESE4.8 kmh ESE 8.0 mph12.9 kmh 30.23 in1023.7 mb 0.00 in0.0 mm 0.00 in0.0 mm 0.00 in0.0 mm
04:10 AM 65.5°F18.6°C 53.8°F12.1°C 66% 2.0 mph ESE3.2 kmh ESE 6.0 mph9.7 kmh 30.23 in1023.7 mb 0.00 in0.0 mm 0.00 in0.0 mm 0.00 in0.0 mm
04:15 AM 65.5°F18.6°C 53.4°F11.9°C 65% 2.0 mph ESE3.2 kmh ESE 7.0 mph11.3 kmh 30.23 in1023.7 mb 0.00 in0.0 mm 0.00 in0.0 mm 0.00 in0.0 mm
04:20 AM 65.4°F18.6°C 53.3°F11.8°C 65% 3.0 mph ESE4.8 kmh ESE 8.0 mph12.9 kmh 30.22 in1023.4 mb 0.00 in0.0 mm 0.00 in0.0 mm 0.00 in0.0 mm
04:25 AM 65.4°F18.6°C 53.3°F11.8°C 65% 3.0 mph ESE4.8 kmh ESE 8.0 mph12.9 kmh 30.23 in1023.7 mb 0.00 in0.0 mm 0.00 in0.0 mm 0.00 in0.0 mm
04:30 AM 65.2°F18.4°C 52.7°F11.5°C 64% 2.0 mph ESE3.2 kmh ESE 8.0 mph12.9 kmh 30.22 in1023.4 mb 0.00 in0.0 mm 0.00 in0.0 mm 0.00 in0.0 mm
04:35 AM 65.2°F18.4°C 52.7°F11.5°C 64% 2.0 mph SE3.2 kmh SE 6.0 mph9.7 kmh 30.23 in1023.7 mb 0.00 in0.0 mm 0.00 in0.0 mm 0.00 in0.0 mm
04:40 AM 65.1°F18.4°C 52.6°F11.4°C 64% 2.0 mph ESE3.2 kmh ESE 6.0 mph9.7 kmh 30.23 in1023.7 mb 0.00 in0.0 mm 0.00 in0.0 mm 0.00 in0.0 mm
04:45 AM 65.1°F18.4°C 52.2°F11.2°C 63% 3.0 mph ESE4.8 kmh ESE 6.0 mph9.7 kmh 30.22 in1023.4 mb 0.00 in0.0 mm 0.00 in0.0 mm 0.00 in0.0 mm
04:50 AM 65.1°F18.4°C 52.2°F11.2°C 63% 3.0 mph ESE4.8 kmh ESE 7.0 mph11.3 kmh 30.22 in1023.4 mb 0.00 in0.0 mm 0.00 in0.0 mm 0.00 in0.0 mm
04:55 AM 65.0°F18.3°C 52.1°F11.2°C 63% 3.0 mph ESE4.8 kmh ESE 7.0 mph11.3 kmh 30.22 in1023.4 mb 0.00 in0.0 mm 0.00 in0.0 mm 0.00 in0.0 mm
05:00 AM 65.0°F18.3°C 51.7°F10.9°C 62% 2.0 mph ESE3.2 kmh ESE 5.0 mph8.0 kmh 30.23 in1023.7 mb 0.00 in0.0 mm 0.00 in0.0 mm 0.00 in0.0 mm
05:05 AM 64.9°F18.3°C 51.6°F10.9°C 62% 2.0 mph ESE3.2 kmh ESE 6.0 mph9.7 kmh 30.23 in1023.7 mb 0.00 in0.0 mm 0.00 in0.0 mm 0.00 in0.0 mm
05:10 AM 64.8°F18.2°C 51.0°F10.6°C 61% 2.0 mph ESE3.2 kmh ESE 6.0 mph9.7 kmh 30.23 in1023.7 mb 0.00 in0.0 mm 0.00 in0.0 mm 0.00 in0.0 mm
05:15 AM 64.8°F18.2°C 50.6°F10.3°C 60% 2.0 mph ESE3.2 kmh ESE 4.0 mph6.4 kmh 30.23 in1023.7 mb 0.00 in0.0 mm 0.00 in0.0 mm 0.00 in0.0 mm
05:20 AM 64.7°F18.2°C 50.5°F10.3°C 60% 2.0 mph SE3.2 kmh SE 4.0 mph6.4 kmh 30.23 in1023.7 mb 0.00 in0.0 mm 0.00 in0.0 mm 0.00 in0.0 mm
05:25 AM 64.6°F18.1°C 49.9°F9.9°C 59% 1.0 mph SE1.6 kmh SE 4.0 mph6.4 kmh 30.23 in1023.7 mb 0.00 in0.0 mm 0.00 in0.0 mm 0.00 in0.0 mm
05:30 AM 64.5°F18.1°C 49.8°F9.9°C 59% 1.0 mph SE1.6 kmh SE 3.0 mph4.8 kmh 30.23 in1023.7 mb 0.00 in0.0 mm 0.00 in0.0 mm 0.00 in0.0 mm
05:35 AM 64.3°F17.9°C 49.2°F9.6°C 58% Calm Calm 2.0 mph3.2 kmh 30.23 in1023.7 mb 0.00 in0.0 mm 0.00 in0.0 mm 0.00 in0.0 mm
05:40 AM 64.1°F17.8°C 48.1°F8.9°C 56% 1.0 mph SE1.6 kmh SE 3.0 mph4.8 kmh 30.23 in1023.7 mb 0.00 in0.0 mm 0.00 in0.0 mm 0.00 in0.0 mm
05:45 AM 63.9°F17.7°C 46.4°F8.0°C 53% 1.0 mph SE1.6 kmh SE 3.0 mph4.8 kmh 30.23 in1023.7 mb 0.00 in0.0 mm 0.00 in0.0 mm 0.00 in0.0 mm
05:50 AM 63.8°F17.7°C 45.3°F7.4°C 51% 2.0 mph SE3.2 kmh SE 3.0 mph4.8 kmh 30.23 in1023.7 mb 0.00 in0.0 mm 0.00 in0.0 mm 0.00 in0.0 mm
05:55 AM 63.6°F17.6°C 44.6°F7.0°C 50% 2.0 mph SE3.2 kmh SE 3.0 mph4.8 kmh 30.22 in1023.4 mb 0.00 in0.0 mm 0.00 in0.0 mm 0.00 in0.0 mm
06:00 AM 63.5°F17.5°C 44.0°F6.7°C 49% 2.0 mph SE3.2 kmh SE 3.0 mph4.8 kmh 30.23 in1023.7 mb 0.00 in0.0 mm 0.00 in0.0 mm 0.00 in0.0 mm
06:05 AM 63.4°F17.4°C 43.4°F6.3°C 48% 1.0 mph SE1.6 kmh SE 3.0 mph4.8 kmh 30.23 in1023.7 mb 0.00 in0.0 mm 0.00 in0.0 mm 0.00 in0.0 mm
06:10 AM 63.2°F17.3°C 43.2°F6.2°C 48% 1.0 mph SE1.6 kmh SE 2.0 mph3.2 kmh 30.23 in1023.7 mb 0.00 in0.0 mm 0.00 in0.0 mm 0.00 in0.0 mm
06:15 AM 63.1°F17.3°C 42.5°F5.8°C 47% 1.0 mph SE1.6 kmh SE 2.0 mph3.2 kmh 30.23 in1023.7 mb 0.00 in0.0 mm 0.00 in0.0 mm 0.00 in0.0 mm
06:20 AM 63.0°F17.2°C 41.9°F5.5°C 46% Calm Calm 2.0 mph3.2 kmh 30.23 in1023.7 mb 0.00 in0.0 mm 0.00 in0.0 mm 0.00 in0.0 mm
06:25 AM 62.8°F17.1°C 41.7°F5.4°C 46% Calm Calm 1.0 mph1.6 kmh 30.23 in1023.7 mb 0.00 in0.0 mm 0.00 in0.0 mm 0.00 in0.0 mm
06:30 AM 62.6°F17.0°C 41.5°F5.3°C 46% Calm Calm 1.0 mph1.6 kmh 30.23 in1023.7 mb 0.00 in0.0 mm 0.00 in0.0 mm 0.00 in0.0 mm
06:35 AM 62.4°F16.9°C 40.2°F4.6°C 44% Calm Calm 1.0 mph1.6 kmh 30.23 in1023.7 mb 0.00 in0.0 mm 0.00 in0.0 mm 0.00 in0.0 mm
06:40 AM 62.1°F16.7°C 38.1°F3.4°C 41% Calm Calm 1.0 mph1.6 kmh 30.23 in1023.7 mb 0.00 in0.0 mm 0.00 in0.0 mm 0.00 in0.0 mm
06:45 AM 61.9°F16.6°C 38.5°F3.6°C 42% Calm Calm -- 30.23 in1023.7 mb 0.00 in0.0 mm 0.00 in0.0 mm 0.00 in0.0 mm
06:50 AM 61.6°F16.4°C 37.0°F2.8°C 40% Calm Calm 1.0 mph1.6 kmh 30.24 in1024.0 mb 0.00 in0.0 mm 0.00 in0.0 mm 0.00 in0.0 mm
06:55 AM 61.3°F16.3°C 34.1°F1.2°C 36% Calm Calm 1.0 mph1.6 kmh 30.23 in1023.7 mb 0.00 in0.0 mm 0.00 in0.0 mm 0.00 in0.0 mm
07:00 AM 61.1°F16.2°C 27.7°F-2.4°C 28% Calm Calm 2.0 mph3.2 kmh 30.24 in1024.0 mb 0.00 in0.0 mm 0.00 in0.0 mm 0.00 in0.0 mm
07:05 AM 61.2°F16.2°C 16.0°F-8.9°C 17% 1.0 mph SE1.6 kmh SE 3.0 mph4.8 kmh 30.24 in1024.0 mb 0.00 in0.0 mm 0.00 in0.0 mm 0.00 in0.0 mm
07:10 AM 61.1°F16.2°C 18.5°F-7.5°C 19% Calm Calm 3.0 mph4.8 kmh 30.24 in1024.0 mb 0.00 in0.0 mm 0.00 in0.0 mm 0.00 in0.0 mm
07:15 AM 61.1°F16.2°C 14.5°F-9.7°C 16% Calm Calm 2.0 mph3.2 kmh 30.24 in1024.0 mb 0.00 in0.0 mm 0.00 in0.0 mm 0.00 in0.0 mm
07:20 AM 61.3°F16.3°C -6.7°F-21.5°C 6% 1.0 mph SE1.6 kmh SE 3.0 mph4.8 kmh 30.24 in1024.0 mb 0.00 in0.0 mm 0.00 in0.0 mm 0.00 in0.0 mm
07:25 AM 61.6°F16.4°C -40.3°F-40.2°C 1% 1.0 mph SE1.6 kmh SE 3.0 mph4.8 kmh 30.25 in1024.4 mb 0.00 in0.0 mm 0.00 in0.0 mm 0.00 in0.0 mm
07:30 AM 61.7°F16.5°C -40.3°F-40.2°C 0% 1.0 mph SE1.6 kmh SE 2.0 mph3.2 kmh 30.25 in1024.4 mb 0.00 in0.0 mm 0.00 in0.0 mm 0.00 in0.0 mm
07:35 AM 61.7°F16.5°C -40.3°F-40.2°C 0% 1.0 mph SE1.6 kmh SE 2.0 mph3.2 kmh 30.25 in1024.4 mb 0.00 in0.0 mm 0.00 in0.0 mm 0.00 in0.0 mm
07:40 AM 61.7°F16.5°C -40.3°F-40.2°C 1% 1.0 mph SE1.6 kmh SE 2.0 mph3.2 kmh 30.24 in1024.0 mb 0.00 in0.0 mm 0.00 in0.0 mm 0.00 in0.0 mm
07:45 AM 61.7°F16.5°C -40.3°F-40.2°C 1% 1.0 mph SE1.6 kmh SE 4.0 mph6.4 kmh 30.24 in1024.0 mb 0.00 in0.0 mm 0.00 in0.0 mm 0.00 in0.0 mm
07:50 AM 61.7°F16.5°C -40.3°F-40.2°C 0% 1.0 mph SE1.6 kmh SE 4.0 mph6.4 kmh 30.24 in1024.0 mb 0.00 in0.0 mm 0.00 in0.0 mm 0.00 in0.0 mm
07:55 AM 61.8°F16.6°C -40.2°F-40.1°C 1% 1.0 mph ESE1.6 kmh ESE 5.0 mph8.0 kmh 30.24 in1024.0 mb 0.00 in0.0 mm 0.00 in0.0 mm 0.00 in0.0 mm
08:00 AM 62.0°F16.7°C -27.7°F-33.2°C 2% 2.0 mph E3.2 kmh E 5.0 mph8.0 kmh 30.24 in1024.0 mb 0.00 in0.0 mm 0.00 in0.0 mm 0.00 in0.0 mm
08:05 AM 62.2°F16.8°C -14.2°F-25.7°C 4% 2.0 mph E3.2 kmh E 5.0 mph8.0 kmh 30.25 in1024.4 mb 0.00 in0.0 mm 0.00 in0.0 mm 0.00 in0.0 mm
08:10 AM 62.4°F16.9°C -5.9°F-21.1°C 6% 2.0 mph ENE3.2 kmh ENE 5.0 mph8.0 kmh 30.25 in1024.4 mb 0.00 in0.0 mm 0.00 in0.0 mm 0.00 in0.0 mm
08:15 AM 62.7°F17.1°C 2.9°F-16.2°C 9% 2.0 mph ENE3.2 kmh ENE 6.0 mph9.7 kmh 30.25 in1024.4 mb 0.00 in0.0 mm 0.00 in0.0 mm 0.00 in0.0 mm
08:20 AM 62.9°F17.2°C 9.4°F-12.6°C 12% 2.0 mph ENE3.2 kmh ENE 6.0 mph9.7 kmh 30.25 in1024.4 mb 0.00 in0.0 mm 0.00 in0.0 mm 0.00 in0.0 mm
08:25 AM 63.2°F17.3°C 14.7°F-9.6°C 15% 2.0 mph ENE3.2 kmh ENE 5.0 mph8.0 kmh 30.25 in1024.4 mb 0.00 in0.0 mm 0.00 in0.0 mm 0.00 in0.0 mm
08:30 AM 63.4°F17.4°C 19.1°F-7.2°C 18% 2.0 mph E3.2 kmh E 5.0 mph8.0 kmh 30.25 in1024.4 mb 0.00 in0.0 mm 0.00 in0.0 mm 0.00 in0.0 mm
08:35 AM 63.7°F17.6°C 23.0°F-5.0°C 21% 1.0 mph E1.6 kmh E 5.0 mph8.0 kmh 30.26 in1024.7 mb 0.00 in0.0 mm 0.00 in0.0 mm 0.00 in0.0 mm
08:40 AM 64.0°F17.8°C 26.4°F-3.1°C 24% 1.0 mph E1.6 kmh E 4.0 mph6.4 kmh 30.26 in1024.7 mb 0.00 in0.0 mm 0.00 in0.0 mm 0.00 in0.0 mm
08:45 AM 64.4°F18.0°C 29.7°F-1.3°C 27% 1.0 mph ESE1.6 kmh ESE 4.0 mph6.4 kmh 30.26 in1024.7 mb 0.00 in0.0 mm 0.00 in0.0 mm 0.00 in0.0 mm
08:50 AM 64.8°F18.2°C 33.4°F0.8°C 31% 1.0 mph ESE1.6 kmh ESE 5.0 mph8.0 kmh 30.26 in1024.7 mb 0.00 in0.0 mm 0.00 in0.0 mm 0.00 in0.0 mm
08:55 AM 65.2°F18.4°C 37.6°F3.1°C 36% 2.0 mph E3.2 kmh E 6.0 mph9.7 kmh 30.26 in1024.7 mb 0.00 in0.0 mm 0.00 in0.0 mm 0.00 in0.0 mm
09:00 AM 65.6°F18.7°C 41.3°F5.2°C 41% 2.0 mph E3.2 kmh E 6.0 mph9.7 kmh 30.26 in1024.7 mb 0.00 in0.0 mm 0.00 in0.0 mm 0.00 in0.0 mm
09:05 AM 66.1°F18.9°C 44.7°F7.1°C 46% 2.0 mph E3.2 kmh E 6.0 mph9.7 kmh 30.27 in1025.1 mb 0.00 in0.0 mm 0.00 in0.0 mm 0.00 in0.0 mm
09:10 AM 66.6°F19.2°C 45.7°F7.6°C 47% 2.0 mph E3.2 kmh E 6.0 mph9.7 kmh 30.27 in1025.1 mb 0.00 in0.0 mm 0.00 in0.0 mm 0.00 in0.0 mm
09:15 AM 67.1°F19.5°C 48.9°F9.4°C 52% 2.0 mph E3.2 kmh E 9.0 mph14.5 kmh 30.27 in1025.1 mb 0.00 in0.0 mm 0.00 in0.0 mm 0.00 in0.0 mm
09:20 AM 67.7°F19.8°C 51.4°F10.8°C 56% 3.0 mph E4.8 kmh E 9.0 mph14.5 kmh 30.27 in1025.1 mb 0.00 in0.0 mm 0.00 in0.0 mm 0.00 in0.0 mm
09:25 AM 68.2°F20.1°C 53.3°F11.8°C 59% 3.0 mph E4.8 kmh E 8.0 mph12.9 kmh 30.27 in1025.1 mb 0.00 in0.0 mm 0.00 in0.0 mm 0.00 in0.0 mm
09:30 AM 68.5°F20.3°C 55.4°F13.0°C 63% 3.0 mph E4.8 kmh E 10.0 mph16.1 kmh 30.27 in1025.1 mb 0.00 in0.0 mm 0.00 in0.0 mm 0.00 in0.0 mm
09:35 AM 68.8°F20.4°C 56.1°F13.4°C 64% 4.0 mph E6.4 kmh E 10.0 mph16.1 kmh 30.27 in1025.1 mb 0.00 in0.0 mm 0.00 in0.0 mm 0.00 in0.0 mm
09:40 AM 69.0°F20.6°C 57.2°F14.0°C 66% 4.0 mph E6.4 kmh E 13.0 mph20.9 kmh 30.27 in1025.1 mb 0.00 in0.0 mm 0.00 in0.0 mm 0.00 in0.0 mm
09:45 AM 69.1°F20.6°C 57.3°F14.1°C 66% 4.0 mph E6.4 kmh E 13.0 mph20.9 kmh 30.27 in1025.1 mb 0.00 in0.0 mm 0.00 in0.0 mm 0.00 in0.0 mm
09:50 AM 69.3°F20.7°C 57.5°F14.2°C 66% 3.0 mph E4.8 kmh E 9.0 mph14.5 kmh 30.27 in1025.1 mb 0.00 in0.0 mm 0.00 in0.0 mm 0.00 in0.0 mm
09:55 AM 69.5°F20.8°C 57.6°F14.2°C 66% 3.0 mph E4.8 kmh E 9.0 mph14.5 kmh 30.27 in1025.1 mb 0.00 in0.0 mm 0.00 in0.0 mm 0.00 in0.0 mm
10:00 AM 69.8°F21.0°C 58.3°F14.6°C 67% 3.0 mph E4.8 kmh E 13.0 mph20.9 kmh 30.27 in1025.1 mb 0.00 in0.0 mm 0.00 in0.0 mm 0.00 in0.0 mm
10:05 AM 70.1°F21.2°C 58.6°F14.8°C 67% 3.0 mph E4.8 kmh E 13.0 mph20.9 kmh 30.27 in1025.1 mb 0.00 in0.0 mm 0.00 in0.0 mm 0.00 in0.0 mm
10:10 AM 70.4°F21.3°C 59.7°F15.4°C 69% 4.0 mph E6.4 kmh E 10.0 mph16.1 kmh 30.27 in1025.1 mb 0.00 in0.0 mm 0.00 in0.0 mm 0.00 in0.0 mm
10:15 AM 70.6°F21.4°C 59.9°F15.5°C 69% 4.0 mph E6.4 kmh E 8.0 mph12.9 kmh 30.28 in1025.4 mb 0.00 in0.0 mm 0.00 in0.0 mm 0.00 in0.0 mm
10:20 AM 70.6°F21.4°C 59.9°F15.5°C 69% 4.0 mph E6.4 kmh E 10.0 mph16.1 kmh 30.28 in1025.4 mb 0.00 in0.0 mm 0.00 in0.0 mm 0.00 in0.0 mm
10:25 AM 70.7°F21.5°C 60.0°F15.6°C 69% 4.0 mph E6.4 kmh E 10.0 mph16.1 kmh 30.28 in1025.4 mb 0.00 in0.0 mm 0.00 in0.0 mm 0.00 in0.0 mm
10:30 AM 70.8°F21.6°C 60.1°F15.6°C 69% 4.0 mph E6.4 kmh E 10.0 mph16.1 kmh 30.29 in1025.7 mb 0.00 in0.0 mm 0.00 in0.0 mm 0.00 in0.0 mm
10:35 AM 70.9°F21.6°C 60.2°F15.7°C 69% 3.0 mph ENE4.8 kmh ENE 9.0 mph14.5 kmh 30.29 in1025.7 mb 0.00 in0.0 mm 0.00 in0.0 mm 0.00 in0.0 mm
10:40 AM 71.1°F21.7°C 60.4°F15.8°C 69% 4.0 mph ENE6.4 kmh ENE 11.0 mph17.7 kmh 30.29 in1025.7 mb 0.00 in0.0 mm 0.00 in0.0 mm 0.00 in0.0 mm
10:45 AM 71.2°F21.8°C 60.5°F15.8°C 69% 3.0 mph ENE4.8 kmh ENE 11.0 mph17.7 kmh 30.29 in1025.7 mb 0.00 in0.0 mm 0.00 in0.0 mm 0.00 in0.0 mm
10:50 AM 71.4°F21.9°C 60.7°F15.9°C 69% 3.0 mph E4.8 kmh E 10.0 mph16.1 kmh 30.29 in1025.7 mb 0.00 in0.0 mm 0.00 in0.0 mm 0.00 in0.0 mm
10:55 AM 71.6°F22.0°C 60.9°F16.1°C 69% 4.0 mph E6.4 kmh E 13.0 mph20.9 kmh 30.29 in1025.7 mb 0.00 in0.0 mm 0.00 in0.0 mm 0.00 in0.0 mm
11:00 AM 71.8°F22.1°C 61.5°F16.4°C 70% 3.0 mph E4.8 kmh E 13.0 mph20.9 kmh 30.28 in1025.4 mb 0.00 in0.0 mm 0.00 in0.0 mm 0.00 in0.0 mm
11:05 AM 72.0°F22.2°C 61.7°F16.5°C 70% 3.0 mph E4.8 kmh E 8.0 mph12.9 kmh 30.28 in1025.4 mb 0.00 in0.0 mm 0.00 in0.0 mm 0.00 in0.0 mm
11:10 AM 72.1°F22.3°C 61.8°F16.6°C 70% 3.0 mph ENE4.8 kmh ENE 8.0 mph12.9 kmh 30.28 in1025.4 mb 0.00 in0.0 mm 0.00 in0.0 mm 0.00 in0.0 mm
11:15 AM 72.2°F22.3°C 61.9°F16.6°C 70% 4.0 mph ENE6.4 kmh ENE 12.0 mph19.3 kmh 30.28 in1025.4 mb 0.00 in0.0 mm 0.00 in0.0 mm 0.00 in0.0 mm
11:20 AM 72.5°F22.5°C 62.2°F16.8°C 70% 4.0 mph E6.4 kmh E 12.0 mph19.3 kmh 30.28 in1025.4 mb 0.00 in0.0 mm 0.00 in0.0 mm 0.00 in0.0 mm
11:25 AM 72.7°F22.6°C 62.3°F16.8°C 70% 4.0 mph E6.4 kmh E 10.0 mph16.1 kmh 30.28 in1025.4 mb 0.00 in0.0 mm 0.00 in0.0 mm 0.00 in0.0 mm
11:30 AM 72.9°F22.7°C 62.5°F16.9°C 70% 5.0 mph E8.0 kmh E 11.0 mph17.7 kmh 30.28 in1025.4 mb 0.00 in0.0 mm 0.00 in0.0 mm 0.00 in0.0 mm
11:35 AM 73.1°F22.8°C 62.7°F17.1°C 70% 5.0 mph E8.0 kmh E 11.0 mph17.7 kmh 30.28 in1025.4 mb 0.00 in0.0 mm 0.00 in0.0 mm 0.00 in0.0 mm
11:40 AM 73.2°F22.9°C 63.2°F17.3°C 71% 5.0 mph E8.0 kmh E 10.0 mph16.1 kmh 30.28 in1025.4 mb 0.00 in0.0 mm 0.00 in0.0 mm 0.00 in0.0 mm
11:45 AM 73.3°F22.9°C 63.3°F17.4°C 71% 5.0 mph ENE8.0 kmh ENE 15.0 mph24.1 kmh 30.28 in1025.4 mb 0.00 in0.0 mm 0.00 in0.0 mm 0.00 in0.0 mm
11:50 AM 73.4°F23.0°C 63.4°F17.4°C 71% 5.0 mph ENE8.0 kmh ENE 15.0 mph24.1 kmh 30.29 in1025.7 mb 0.00 in0.0 mm 0.00 in0.0 mm 0.00 in0.0 mm
11:55 AM 73.5°F23.1°C 63.5°F17.5°C 71% 4.0 mph ENE6.4 kmh ENE 9.0 mph14.5 kmh 30.28 in1025.4 mb 0.00 in0.0 mm 0.00 in0.0 mm 0.00 in0.0 mm
12:00 PM 73.6°F23.1°C 63.2°F17.3°C 70% 5.0 mph ENE8.0 kmh ENE 10.0 mph16.1 kmh 30.28 in1025.4 mb 0.00 in0.0 mm 0.00 in0.0 mm 0.00 in0.0 mm
12:05 PM 73.6°F23.1°C 63.2°F17.3°C 70% 4.0 mph E6.4 kmh E 10.0 mph16.1 kmh 30.28 in1025.4 mb 0.00 in0.0 mm 0.00 in0.0 mm 0.00 in0.0 mm
12:10 PM 73.6°F23.1°C 63.6°F17.6°C 71% 5.0 mph ENE8.0 kmh ENE 10.0 mph16.1 kmh 30.28 in1025.4 mb 0.00 in0.0 mm 0.00 in0.0 mm 0.00 in0.0 mm
12:15 PM 73.7°F23.2°C 63.7°F17.6°C 71% 5.0 mph ENE8.0 kmh ENE 10.0 mph16.1 kmh 30.28 in1025.4 mb 0.00 in0.0 mm 0.00 in0.0 mm 0.00 in0.0 mm
12:20 PM 73.7°F23.2°C 63.3°F17.4°C 70% 4.0 mph ENE6.4 kmh ENE 9.0 mph14.5 kmh 30.28 in1025.4 mb 0.00 in0.0 mm 0.00 in0.0 mm 0.00 in0.0 mm
12:25 PM 73.9°F23.3°C 63.9°F17.7°C 71% 4.0 mph ENE6.4 kmh ENE 9.0 mph14.5 kmh 30.28 in1025.4 mb 0.00 in0.0 mm 0.00 in0.0 mm 0.00 in0.0 mm
12:30 PM 73.9°F23.3°C 63.5°F17.5°C 70% 5.0 mph ENE8.0 kmh ENE 10.0 mph16.1 kmh 30.28 in1025.4 mb 0.00 in0.0 mm 0.00 in0.0 mm 0.00 in0.0 mm
12:35 PM 73.9°F23.3°C 63.5°F17.5°C 70% 6.0 mph ENE9.7 kmh ENE 13.0 mph20.9 kmh 30.28 in1025.4 mb 0.00 in0.0 mm 0.00 in0.0 mm 0.00 in0.0 mm
12:40 PM 73.8°F23.2°C 63.4°F17.4°C 70% 5.0 mph E8.0 kmh E 13.0 mph20.9 kmh 30.27 in1025.1 mb 0.00 in0.0 mm 0.00 in0.0 mm 0.00 in0.0 mm
12:45 PM 73.7°F23.2°C 63.3°F17.4°C 70% 5.0 mph E8.0 kmh E 12.0 mph19.3 kmh 30.27 in1025.1 mb 0.00 in0.0 mm 0.00 in0.0 mm 0.00 in0.0 mm
12:50 PM 73.7°F23.2°C 63.7°F17.6°C 71% 5.0 mph E8.0 kmh E 12.0 mph19.3 kmh 30.27 in1025.1 mb 0.00 in0.0 mm 0.00 in0.0 mm 0.00 in0.0 mm
12:55 PM 73.7°F23.2°C 63.7°F17.6°C 71% 4.0 mph ENE6.4 kmh ENE 10.0 mph16.1 kmh 30.27 in1025.1 mb 0.00 in0.0 mm 0.00 in0.0 mm 0.00 in0.0 mm
01:00 PM 73.7°F23.2°C 63.7°F17.6°C 71% 5.0 mph ENE8.0 kmh ENE 10.0 mph16.1 kmh 30.27 in1025.1 mb 0.00 in0.0 mm 0.00 in0.0 mm 0.00 in0.0 mm
01:05 PM 73.7°F23.2°C 63.7°F17.6°C 71% 4.0 mph ENE6.4 kmh ENE 13.0 mph20.9 kmh 30.27 in1025.1 mb 0.00 in0.0 mm 0.00 in0.0 mm 0.00 in0.0 mm
01:10 PM 73.5°F23.1°C 63.5°F17.5°C 71% 6.0 mph E9.7 kmh E 13.0 mph20.9 kmh 30.27 in1025.1 mb 0.00 in0.0 mm 0.00 in0.0 mm 0.00 in0.0 mm
01:15 PM 73.3°F22.9°C 63.3°F17.4°C 71% 7.0 mph E11.3 kmh E 13.0 mph20.9 kmh 30.27 in1025.1 mb 0.00 in0.0 mm 0.00 in0.0 mm 0.00 in0.0 mm
01:20 PM 73.4°F23.0°C 63.4°F17.4°C 71% 5.0 mph ENE8.0 kmh ENE 13.0 mph20.9 kmh 30.26 in1024.7 mb 0.00 in0.0 mm 0.00 in0.0 mm 0.00 in0.0 mm
01:25 PM 73.3°F22.9°C 63.3°F17.4°C 71% 4.0 mph ENE6.4 kmh ENE 11.0 mph17.7 kmh 30.26 in1024.7 mb 0.00 in0.0 mm 0.00 in0.0 mm 0.00 in0.0 mm
01:30 PM 73.2°F22.9°C 62.8°F17.1°C 70% 4.0 mph ENE6.4 kmh ENE 11.0 mph17.7 kmh 30.26 in1024.7 mb 0.00 in0.0 mm 0.00 in0.0 mm 0.00 in0.0 mm
01:35 PM 73.1°F22.8°C 63.1°F17.3°C 71% 5.0 mph NE8.0 kmh NE 12.0 mph19.3 kmh 30.26 in1024.7 mb 0.00 in0.0 mm 0.00 in0.0 mm 0.00 in0.0 mm
01:40 PM 73.0°F22.8°C 62.6°F17.0°C 70% 5.0 mph NE8.0 kmh NE 12.0 mph19.3 kmh 30.25 in1024.4 mb 0.00 in0.0 mm 0.00 in0.0 mm 0.00 in0.0 mm
01:45 PM 73.0°F22.8°C 62.6°F17.0°C 70% 5.0 mph ENE8.0 kmh ENE 10.0 mph16.1 kmh 30.25 in1024.4 mb 0.00 in0.0 mm 0.00 in0.0 mm 0.00 in0.0 mm
01:50 PM 73.0°F22.8°C 62.6°F17.0°C 70% 4.0 mph E6.4 kmh E 9.0 mph14.5 kmh 30.25 in1024.4 mb 0.00 in0.0 mm 0.00 in0.0 mm 0.00 in0.0 mm
01:55 PM 72.9°F22.7°C 62.1°F16.7°C 69% 4.0 mph E6.4 kmh E 10.0 mph16.1 kmh 30.25 in1024.4 mb 0.00 in0.0 mm 0.00 in0.0 mm 0.00 in0.0 mm
02:00 PM 72.8°F22.7°C 61.2°F16.2°C 67% 4.0 mph E6.4 kmh E 10.0 mph16.1 kmh 30.25 in1024.4 mb 0.00 in0.0 mm 0.00 in0.0 mm 0.00 in0.0 mm
02:05 PM 72.5°F22.5°C 59.6°F15.3°C 64% 3.0 mph E4.8 kmh E 8.0 mph12.9 kmh 30.24 in1024.0 mb 0.00 in0.0 mm 0.00 in0.0 mm 0.00 in0.0 mm
02:10 PM 72.2°F22.3°C 57.5°F14.2°C 60% 3.0 mph ESE4.8 kmh ESE 8.0 mph12.9 kmh 30.24 in1024.0 mb 0.00 in0.0 mm 0.00 in0.0 mm 0.00 in0.0 mm
02:15 PM 71.9°F22.2°C 55.3°F12.9°C 56% 2.0 mph E3.2 kmh E 5.0 mph8.0 kmh 30.25 in1024.4 mb 0.00 in0.0 mm 0.00 in0.0 mm 0.00 in0.0 mm
02:20 PM 71.8°F22.1°C 54.3°F12.4°C 54% 2.0 mph NE3.2 kmh NE 4.0 mph6.4 kmh 30.25 in1024.4 mb 0.00 in0.0 mm 0.00 in0.0 mm 0.00 in0.0 mm
02:25 PM 71.6°F22.0°C 50.9°F10.5°C 48% 2.0 mph NNE3.2 kmh NNE 4.0 mph6.4 kmh 30.24 in1024.0 mb 0.01 in0.3 mm 0.12 in3.0 mm 0.01 in0.3 mm
02:30 PM 71.5°F21.9°C 46.6°F8.1°C 41% 1.0 mph NNE1.6 kmh NNE 4.0 mph6.4 kmh 30.24 in1024.0 mb 0.02 in0.5 mm 0.12 in3.0 mm 0.02 in0.5 mm
02:35 PM 71.5°F21.9°C 44.5°F6.9°C 38% 1.0 mph NNE1.6 kmh NNE 2.0 mph3.2 kmh 30.24 in1024.0 mb 0.02 in0.5 mm 0.00 in0.0 mm 0.02 in0.5 mm
02:40 PM 71.5°F21.9°C 40.9°F4.9°C 33% Calm Calm 2.0 mph3.2 kmh 30.24 in1024.0 mb 0.03 in0.8 mm 0.12 in3.0 mm 0.03 in0.8 mm
02:45 PM 71.4°F21.9°C 44.5°F6.9°C 38% Calm Calm 2.0 mph3.2 kmh 30.24 in1024.0 mb 0.03 in0.8 mm 0.00 in0.0 mm 0.03 in0.8 mm
02:50 PM 71.2°F21.8°C 36.4°F2.4°C 28% 1.0 mph NNE1.6 kmh NNE 3.0 mph4.8 kmh 30.24 in1024.0 mb 0.04 in1.0 mm 0.12 in3.0 mm 0.04 in1.0 mm
02:55 PM 70.9°F21.6°C 37.0°F2.8°C 29% 1.0 mph NNE1.6 kmh NNE 3.0 mph4.8 kmh 30.24 in1024.0 mb 0.04 in1.0 mm 0.00 in0.0 mm 0.04 in1.0 mm
03:00 PM 71.0°F21.7°C 22.5°F-5.3°C 16% Calm Calm 2.0 mph3.2 kmh 30.23 in1023.7 mb 0.05 in1.3 mm 0.01 in0.3 mm 0.05 in1.3 mm
03:05 PM 71.0°F21.7°C 13.8°F-10.1°C 11% Calm Calm 1.0 mph1.6 kmh 30.23 in1023.7 mb 0.06 in1.5 mm 0.12 in3.0 mm 0.06 in1.5 mm
03:10 PM 71.1°F21.7°C 3.8°F-15.7°C 7% Calm Calm 2.0 mph3.2 kmh 30.22 in1023.4 mb 0.06 in1.5 mm 0.00 in0.0 mm 0.06 in1.5 mm
03:15 PM 71.1°F21.7°C -3.4°F-19.7°C 5% 1.0 mph ENE1.6 kmh ENE 3.0 mph4.8 kmh 30.21 in1023.0 mb 0.06 in1.5 mm 0.00 in0.0 mm 0.06 in1.5 mm
03:20 PM 71.0°F21.7°C 0.4°F-17.6°C 6% 2.0 mph E3.2 kmh E 3.0 mph4.8 kmh 30.21 in1023.0 mb 0.07 in1.8 mm 0.12 in3.0 mm 0.07 in1.8 mm
03:25 PM 71.0°F21.7°C 0.4°F-17.6°C 6% 1.0 mph ESE1.6 kmh ESE 3.0 mph4.8 kmh 30.22 in1023.4 mb 0.06 in1.5 mm 0.00 in0.0 mm 0.07 in1.8 mm
03:30 PM 71.0°F21.7°C -8.1°F-22.3°C 4% 1.0 mph ESE1.6 kmh ESE 2.0 mph3.2 kmh 30.21 in1023.0 mb 0.05 in1.3 mm 0.00 in0.0 mm 0.07 in1.8 mm
03:35 PM 71.0°F21.7°C -3.5°F-19.7°C 5% 1.0 mph ESE1.6 kmh ESE 2.0 mph3.2 kmh 30.21 in1023.0 mb 0.06 in1.5 mm 0.12 in3.0 mm 0.08 in2.0 mm
03:40 PM 70.9°F21.6°C 3.6°F-15.8°C 7% 1.0 mph ESE1.6 kmh ESE 3.0 mph4.8 kmh 30.22 in1023.4 mb 0.05 in1.3 mm 0.00 in0.0 mm 0.08 in2.0 mm
03:45 PM 70.8°F21.6°C -8.2°F-22.3°C 4% 1.0 mph ESE1.6 kmh ESE 3.0 mph4.8 kmh 30.22 in1023.4 mb 0.05 in1.3 mm 0.00 in0.0 mm 0.09 in2.3 mm
03:50 PM 70.7°F21.5°C 0.2°F-17.7°C 6% 1.0 mph ESE1.6 kmh ESE 3.0 mph4.8 kmh 30.21 in1023.0 mb 0.05 in1.3 mm 0.00 in0.0 mm 0.09 in2.3 mm
03:55 PM 70.9°F21.6°C -34.7°F-37.1°C 0% 1.0 mph ESE1.6 kmh ESE 3.0 mph4.8 kmh 30.21 in1023.0 mb 0.05 in1.3 mm 0.00 in0.0 mm 0.09 in2.3 mm
04:00 PM 70.8°F21.6°C -14.0°F-25.6°C 3% 1.0 mph E1.6 kmh E 5.0 mph8.0 kmh 30.21 in1023.0 mb 0.05 in1.3 mm 0.00 in0.0 mm 0.10 in2.5 mm
04:05 PM 70.6°F21.4°C 6.3°F-14.3°C 8% 1.0 mph E1.6 kmh E 5.0 mph8.0 kmh 30.22 in1023.4 mb 0.04 in1.0 mm 0.00 in0.0 mm 0.10 in2.5 mm
04:10 PM 70.5°F21.4°C -8.4°F-22.4°C 4% Calm Calm 1.0 mph1.6 kmh 30.22 in1023.4 mb 0.04 in1.0 mm 0.00 in0.0 mm 0.10 in2.5 mm
04:15 PM 70.4°F21.3°C -8.5°F-22.5°C 4% Calm Calm 2.0 mph3.2 kmh 30.21 in1023.0 mb 0.04 in1.0 mm 0.00 in0.0 mm 0.10 in2.5 mm
04:20 PM 70.3°F21.3°C -8.6°F-22.6°C 4% 1.0 mph E1.6 kmh E 2.0 mph3.2 kmh 30.21 in1023.0 mb 0.03 in0.8 mm 0.00 in0.0 mm 0.10 in2.5 mm
04:25 PM 70.4°F21.3°C -35.0°F-37.2°C 0% 1.0 mph E1.6 kmh E 2.0 mph3.2 kmh 30.21 in1023.0 mb 0.03 in0.8 mm 0.00 in0.0 mm 0.10 in2.5 mm
04:30 PM 70.4°F21.3°C -35.0°F-37.2°C 0% Calm Calm 1.0 mph1.6 kmh 30.22 in1023.4 mb 0.03 in0.8 mm 0.00 in0.0 mm 0.10 in2.5 mm
04:35 PM 70.5°F21.4°C -35.0°F-37.2°C 0% Calm Calm 1.0 mph1.6 kmh 30.22 in1023.4 mb 0.02 in0.5 mm 0.00 in0.0 mm 0.10 in2.5 mm
04:40 PM 70.5°F21.4°C -35.0°F-37.2°C 0% Calm Calm 1.0 mph1.6 kmh 30.21 in1023.0 mb 0.03 in0.8 mm 0.12 in3.0 mm 0.11 in2.8 mm
04:45 PM 70.5°F21.4°C -35.0°F-37.2°C 0% Calm Calm 2.0 mph3.2 kmh 30.21 in1023.0 mb 0.02 in0.5 mm 0.00 in0.0 mm 0.11 in2.8 mm
04:50 PM 70.3°F21.3°C -35.0°F-37.2°C 0% 1.0 mph E1.6 kmh E 2.0 mph3.2 kmh 30.21 in1023.0 mb 0.03 in0.8 mm 0.12 in3.0 mm 0.12 in3.0 mm
04:55 PM 70.3°F21.3°C -35.0°F-37.2°C 0% 1.0 mph E1.6 kmh E 2.0 mph3.2 kmh 30.22 in1023.4 mb 0.03 in0.8 mm 0.00 in0.0 mm 0.12 in3.0 mm
05:00 PM 70.1°F21.2°C -35.0°F-37.2°C 0% Calm Calm 2.0 mph3.2 kmh 30.22 in1023.4 mb 0.02 in0.5 mm 0.00 in0.0 mm 0.12 in3.0 mm
05:05 PM 70.0°F21.1°C -35.0°F-37.2°C 0% Calm Calm 2.0 mph3.2 kmh 30.22 in1023.4 mb 0.03 in0.8 mm 0.12 in3.0 mm 0.13 in3.3 mm
05:10 PM 70.1°F21.2°C -35.0°F-37.2°C 0% Calm Calm 1.0 mph1.6 kmh 30.21 in1023.0 mb 0.04 in1.0 mm 0.12 in3.0 mm 0.14 in3.6 mm
05:15 PM 70.1°F21.2°C -35.0°F-37.2°C 0% 1.0 mph E1.6 kmh E 2.0 mph3.2 kmh 30.21 in1023.0 mb 0.04 in1.0 mm 0.00 in0.0 mm 0.14 in3.6 mm
05:20 PM 69.9°F21.1°C -35.0°F-37.2°C 0% 1.0 mph E1.6 kmh E 2.0 mph3.2 kmh 30.22 in1023.4 mb 0.06 in1.5 mm 0.24 in6.1 mm 0.16 in4.1 mm
05:25 PM 69.7°F20.9°C -35.0°F-37.2°C 0% Calm Calm 2.0 mph3.2 kmh 30.23 in1023.7 mb 0.06 in1.5 mm 0.00 in0.0 mm 0.16 in4.1 mm
05:30 PM 69.6°F20.9°C -35.0°F-37.2°C 0% Calm Calm 2.0 mph3.2 kmh 30.23 in1023.7 mb 0.06 in1.5 mm 0.00 in0.0 mm 0.16 in4.1 mm
05:35 PM 69.6°F20.9°C -35.0°F-37.2°C 0% Calm Calm 1.0 mph1.6 kmh 30.23 in1023.7 mb 0.07 in1.8 mm 0.12 in3.0 mm 0.17 in4.3 mm
05:40 PM 69.5°F20.8°C -35.0°F-37.2°C 0% 1.0 mph E1.6 kmh E 2.0 mph3.2 kmh 30.22 in1023.4 mb 0.07 in1.8 mm 0.00 in0.0 mm 0.18 in4.6 mm
05:45 PM 69.3°F20.7°C -35.0°F-37.2°C 0% 1.0 mph E1.6 kmh E 3.0 mph4.8 kmh 30.23 in1023.7 mb 0.08 in2.0 mm 0.12 in3.0 mm 0.19 in4.8 mm
05:50 PM 69.1°F20.6°C -35.0°F-37.2°C 0% 1.0 mph E1.6 kmh E 3.0 mph4.8 kmh 30.23 in1023.7 mb 0.08 in2.0 mm 0.00 in0.0 mm 0.20 in5.1 mm
05:55 PM 68.7°F20.4°C -35.0°F-37.2°C 0% 1.0 mph E1.6 kmh E 5.0 mph8.0 kmh 30.23 in1023.7 mb 0.08 in2.0 mm 0.00 in0.0 mm 0.20 in5.1 mm
06:00 PM 68.4°F20.2°C -35.0°F-37.2°C 0% 1.0 mph E1.6 kmh E 5.0 mph8.0 kmh 30.23 in1023.7 mb 0.10 in2.5 mm 0.02 in0.5 mm 0.22 in5.6 mm
06:05 PM 68.2°F20.1°C -35.0°F-37.2°C 0% 1.0 mph E1.6 kmh E 3.0 mph4.8 kmh 30.22 in1023.4 mb 0.10 in2.5 mm 0.00 in0.0 mm 0.23 in5.8 mm
06:10 PM 68.0°F20.0°C -35.0°F-37.2°C 0% 2.0 mph ENE3.2 kmh ENE 6.0 mph9.7 kmh 30.21 in1023.0 mb 0.10 in2.5 mm 0.00 in0.0 mm 0.24 in6.1 mm
06:15 PM 67.8°F19.9°C -35.0°F-37.2°C 0% 2.0 mph NE3.2 kmh NE 6.0 mph9.7 kmh 30.21 in1023.0 mb 0.09 in2.3 mm 0.00 in0.0 mm 0.24 in6.1 mm
06:20 PM 67.6°F19.8°C -35.0°F-37.2°C 0% 2.0 mph ENE3.2 kmh ENE 4.0 mph6.4 kmh 30.21 in1023.0 mb 0.09 in2.3 mm 0.00 in0.0 mm 0.25 in6.4 mm
06:25 PM 67.5°F19.7°C -35.0°F-37.2°C 0% 2.0 mph ENE3.2 kmh ENE 4.0 mph6.4 kmh 30.21 in1023.0 mb 0.09 in2.3 mm 0.00 in0.0 mm 0.25 in6.4 mm
06:30 PM 67.4°F19.7°C -35.0°F-37.2°C 0% 1.0 mph ENE1.6 kmh ENE 4.0 mph6.4 kmh 30.21 in1023.0 mb 0.10 in2.5 mm 0.12 in3.0 mm 0.26 in6.6 mm
06:35 PM 67.2°F19.6°C -35.0°F-37.2°C 0% 1.0 mph E1.6 kmh E 5.0 mph8.0 kmh 30.21 in1023.0 mb 0.09 in2.3 mm 0.00 in0.0 mm 0.26 in6.6 mm
06:40 PM 67.2°F19.6°C -35.0°F-37.2°C 0% 1.0 mph E1.6 kmh E 5.0 mph8.0 kmh 30.21 in1023.0 mb 0.08 in2.0 mm 0.00 in0.0 mm 0.26 in6.6 mm
06:45 PM 67.1°F19.5°C -35.0°F-37.2°C 0% 1.0 mph E1.6 kmh E 3.0 mph4.8 kmh 30.21 in1023.0 mb 0.07 in1.8 mm 0.00 in0.0 mm 0.26 in6.6 mm
06:50 PM 67.0°F19.4°C -35.0°F-37.2°C 0% 2.0 mph E3.2 kmh E 7.0 mph11.3 kmh 30.22 in1023.4 mb 0.06 in1.5 mm 0.00 in0.0 mm 0.26 in6.6 mm
06:55 PM 67.0°F19.4°C -35.0°F-37.2°C 0% 2.0 mph E3.2 kmh E 7.0 mph11.3 kmh 30.22 in1023.4 mb 0.05 in1.3 mm 0.00 in0.0 mm 0.26 in6.6 mm
07:00 PM 66.9°F19.4°C -35.0°F-37.2°C 0% 2.0 mph E3.2 kmh E 5.0 mph8.0 kmh 30.21 in1023.0 mb 0.04 in1.0 mm 0.00 in0.0 mm 0.26 in6.6 mm
07:05 PM 66.9°F19.4°C -35.0°F-37.2°C 0% 2.0 mph E3.2 kmh E 5.0 mph8.0 kmh 30.22 in1023.4 mb 0.03 in0.8 mm 0.00 in0.0 mm 0.26 in6.6 mm
07:10 PM 66.8°F19.3°C -35.0°F-37.2°C 0% 2.0 mph E3.2 kmh E 6.0 mph9.7 kmh 30.22 in1023.4 mb 0.02 in0.5 mm 0.00 in0.0 mm 0.26 in6.6 mm
07:15 PM 66.7°F19.3°C -35.0°F-37.2°C 0% 2.0 mph ENE3.2 kmh ENE 9.0 mph14.5 kmh 30.21 in1023.0 mb 0.03 in0.8 mm 0.12 in3.0 mm 0.27 in6.9 mm
07:20 PM 66.7°F19.3°C -35.0°F-37.2°C 0% 2.0 mph ENE3.2 kmh ENE 9.0 mph14.5 kmh 30.22 in1023.4 mb 0.02 in0.5 mm 0.00 in0.0 mm 0.27 in6.9 mm
07:25 PM 66.6°F19.2°C -35.0°F-37.2°C 0% 2.0 mph E3.2 kmh E 5.0 mph8.0 kmh 30.22 in1023.4 mb 0.03 in0.8 mm 0.12 in3.0 mm 0.28 in7.1 mm
07:30 PM 66.6°F19.2°C -35.0°F-37.2°C 0% 1.0 mph E1.6 kmh E 5.0 mph8.0 kmh 30.22 in1023.4 mb 0.02 in0.5 mm 0.00 in0.0 mm 0.28 in7.1 mm
07:35 PM 66.5°F19.2°C -35.0°F-37.2°C 0% 1.0 mph E1.6 kmh E 7.0 mph11.3 kmh 30.22 in1023.4 mb 0.02 in0.5 mm 0.00 in0.0 mm 0.28 in7.1 mm
07:40 PM 66.5°F19.2°C -35.0°F-37.2°C 0% 1.0 mph ESE1.6 kmh ESE 7.0 mph11.3 kmh 30.22 in1023.4 mb 0.02 in0.5 mm 0.00 in0.0 mm 0.28 in7.1 mm
07:45 PM 66.5°F19.2°C -35.0°F-37.2°C 0% 1.0 mph SE1.6 kmh SE 3.0 mph4.8 kmh 30.22 in1023.4 mb 0.03 in0.8 mm 0.12 in3.0 mm 0.29 in7.4 mm
07:50 PM 66.5°F19.2°C -35.0°F-37.2°C 0% 1.0 mph SE1.6 kmh SE 3.0 mph4.8 kmh 30.23 in1023.7 mb 0.03 in0.8 mm 0.00 in0.0 mm 0.29 in7.4 mm
07:55 PM 66.4°F19.1°C -35.0°F-37.2°C 0% 1.0 mph SE1.6 kmh SE 3.0 mph4.8 kmh 30.24 in1024.0 mb 0.04 in1.0 mm 0.12 in3.0 mm 0.30 in7.6 mm
08:00 PM 66.5°F19.2°C -35.0°F-37.2°C 0% Calm Calm 2.0 mph3.2 kmh 30.24 in1024.0 mb 0.05 in1.3 mm 0.01 in0.3 mm 0.31 in7.9 mm
08:05 PM 66.5°F19.2°C -35.0°F-37.2°C 0% 1.0 mph SE1.6 kmh SE 2.0 mph3.2 kmh 30.24 in1024.0 mb 0.06 in1.5 mm 0.12 in3.0 mm 0.32 in8.1 mm
08:10 PM 66.5°F19.2°C -35.0°F-37.2°C 0% 1.0 mph SE1.6 kmh SE 2.0 mph3.2 kmh 30.25 in1024.4 mb 0.07 in1.8 mm 0.12 in3.0 mm 0.33 in8.4 mm
08:15 PM 66.5°F19.2°C -35.0°F-37.2°C 0% 1.0 mph SE1.6 kmh SE 3.0 mph4.8 kmh 30.26 in1024.7 mb 0.07 in1.8 mm 0.00 in0.0 mm 0.34 in8.6 mm
08:20 PM 66.5°F19.2°C -35.0°F-37.2°C 0% 2.0 mph SE3.2 kmh SE 3.0 mph4.8 kmh 30.25 in1024.4 mb 0.11 in2.8 mm 0.48 in12.2 mm 0.38 in9.7 mm
08:25 PM 66.5°F19.2°C -35.0°F-37.2°C 0% 1.0 mph SE1.6 kmh SE 3.0 mph4.8 kmh 30.25 in1024.4 mb 0.15 in3.8 mm 0.48 in12.2 mm 0.43 in10.9 mm
08:30 PM 66.4°F19.1°C -35.0°F-37.2°C 0% 1.0 mph SE1.6 kmh SE 3.0 mph4.8 kmh 30.26 in1024.7 mb 0.16 in4.1 mm 0.12 in3.0 mm 0.44 in11.2 mm
08:35 PM 66.3°F19.1°C -35.0°F-37.2°C 0% 1.0 mph SE1.6 kmh SE 2.0 mph3.2 kmh 30.26 in1024.7 mb 0.17 in4.3 mm 0.12 in3.0 mm 0.45 in11.4 mm
08:40 PM 66.3°F19.1°C -35.0°F-37.2°C 0% 1.0 mph SE1.6 kmh SE 3.0 mph4.8 kmh 30.26 in1024.7 mb 0.19 in4.8 mm 0.24 in6.1 mm 0.47 in11.9 mm
08:45 PM 66.2°F19.0°C -35.0°F-37.2°C 0% 1.0 mph SE1.6 kmh SE 3.0 mph4.8 kmh 30.27 in1025.1 mb 0.19 in4.8 mm 0.00 in0.0 mm 0.48 in12.2 mm
08:50 PM 66.2°F19.0°C -35.0°F-37.2°C 0% 1.0 mph SE1.6 kmh SE 3.0 mph4.8 kmh 30.27 in1025.1 mb 0.19 in4.8 mm 0.00 in0.0 mm 0.48 in12.2 mm
08:55 PM 66.2°F19.0°C -35.0°F-37.2°C 0% 1.0 mph SE1.6 kmh SE 3.0 mph4.8 kmh 30.27 in1025.1 mb 0.19 in4.8 mm 0.00 in0.0 mm 0.49 in12.4 mm
09:00 PM 66.2°F19.0°C -35.0°F-37.2°C 0% 2.0 mph ESE3.2 kmh ESE 5.0 mph8.0 kmh 30.27 in1025.1 mb 0.19 in4.8 mm 0.00 in0.0 mm 0.50 in12.7 mm
09:05 PM 66.1°F18.9°C -35.0°F-37.2°C 0% 2.0 mph ENE3.2 kmh ENE 5.0 mph8.0 kmh 30.27 in1025.1 mb 0.18 in4.6 mm 0.00 in0.0 mm 0.50 in12.7 mm
09:10 PM 66.1°F18.9°C -35.0°F-37.2°C 0% 1.0 mph NW1.6 kmh NW 3.0 mph4.8 kmh 30.27 in1025.1 mb 0.17 in4.3 mm 0.00 in0.0 mm 0.50 in12.7 mm
09:15 PM 66.0°F18.9°C -35.0°F-37.2°C 0% 1.0 mph NW1.6 kmh NW 2.0 mph3.2 kmh 30.27 in1025.1 mb 0.16 in4.1 mm 0.00 in0.0 mm 0.51 in13.0 mm
09:20 PM 65.9°F18.8°C -35.0°F-37.2°C 0% 1.0 mph NW1.6 kmh NW 2.0 mph3.2 kmh 30.27 in1025.1 mb 0.14 in3.6 mm 0.00 in0.0 mm 0.52 in13.2 mm
09:25 PM 66.0°F18.9°C -35.0°F-37.2°C 0% 1.0 mph NW1.6 kmh NW 3.0 mph4.8 kmh 30.27 in1025.1 mb 0.09 in2.3 mm 0.00 in0.0 mm 0.52 in13.2 mm
09:30 PM 65.9°F18.8°C -35.0°F-37.2°C 0% 1.0 mph NW1.6 kmh NW 3.0 mph4.8 kmh 30.27 in1025.1 mb 0.08 in2.0 mm 0.00 in0.0 mm 0.52 in13.2 mm
09:35 PM 65.9°F18.8°C -35.0°F-37.2°C 0% 1.0 mph NW1.6 kmh NW 3.0 mph4.8 kmh 30.27 in1025.1 mb 0.08 in2.0 mm 0.00 in0.0 mm 0.53 in13.5 mm
09:40 PM 65.9°F18.8°C -35.0°F-37.2°C 0% 1.0 mph NW1.6 kmh NW 3.0 mph4.8 kmh 30.27 in1025.1 mb 0.07 in1.8 mm 0.00 in0.0 mm 0.54 in13.7 mm
09:45 PM 65.9°F18.8°C -35.0°F-37.2°C 0% 1.0 mph NW1.6 kmh NW 3.0 mph4.8 kmh 30.27 in1025.1 mb 0.07 in1.8 mm 0.00 in0.0 mm 0.55 in14.0 mm
09:50 PM 65.8°F18.8°C -35.0°F-37.2°C 0% 1.0 mph NW1.6 kmh NW 3.0 mph4.8 kmh 30.26 in1024.7 mb 0.07 in1.8 mm 0.00 in0.0 mm 0.56 in14.2 mm
09:55 PM 65.8°F18.8°C -35.0°F-37.2°C 0% 1.0 mph NW1.6 kmh NW 3.0 mph4.8 kmh 30.26 in1024.7 mb 0.08 in2.0 mm 0.12 in3.0 mm 0.57 in14.5 mm
10:00 PM 65.7°F18.7°C -35.0°F-37.2°C 0% 2.0 mph N3.2 kmh N 4.0 mph6.4 kmh 30.26 in1024.7 mb 0.08 in2.0 mm 0.00 in0.0 mm 0.58 in14.7 mm
10:05 PM 65.6°F18.7°C -35.0°F-37.2°C 0% 2.0 mph N3.2 kmh N 4.0 mph6.4 kmh 30.26 in1024.7 mb 0.08 in2.0 mm 0.00 in0.0 mm 0.58 in14.7 mm
10:10 PM 65.4°F18.6°C -35.0°F-37.2°C 0% 1.0 mph NNE1.6 kmh NNE 3.0 mph4.8 kmh 30.26 in1024.7 mb 0.08 in2.0 mm 0.00 in0.0 mm 0.58 in14.7 mm
10:15 PM 65.3°F18.5°C -35.0°F-37.2°C 0% 1.0 mph NNE1.6 kmh NNE 4.0 mph6.4 kmh 30.26 in1024.7 mb 0.08 in2.0 mm 0.00 in0.0 mm 0.59 in15.0 mm
10:20 PM 65.3°F18.5°C -35.0°F-37.2°C 0% 1.0 mph NE1.6 kmh NE 4.0 mph6.4 kmh 30.26 in1024.7 mb 0.08 in2.0 mm 0.00 in0.0 mm 0.60 in15.2 mm
10:30 PM 65.2°F18.4°C -35.0°F-37.2°C 0% 1.0 mph E1.6 kmh E 5.0 mph8.0 kmh 30.25 in1024.4 mb 0.09 in2.3 mm 0.06 in1.5 mm 0.62 in15.7 mm
10:35 PM 65.2°F18.4°C -35.0°F-37.2°C 0% 1.0 mph E1.6 kmh E 5.0 mph8.0 kmh 30.25 in1024.4 mb 0.10 in2.5 mm 0.12 in3.0 mm 0.63 in16.0 mm
10:40 PM 65.2°F18.4°C -35.0°F-37.2°C 0% 2.0 mph E3.2 kmh E 6.0 mph9.7 kmh 30.25 in1024.4 mb 0.09 in2.3 mm 0.00 in0.0 mm 0.63 in16.0 mm
10:45 PM 65.3°F18.5°C -35.0°F-37.2°C 0% 2.0 mph E3.2 kmh E 6.0 mph9.7 kmh 30.25 in1024.4 mb 0.09 in2.3 mm 0.00 in0.0 mm 0.64 in16.3 mm
10:50 PM 65.3°F18.5°C -35.0°F-37.2°C 0% 2.0 mph ESE3.2 kmh ESE 8.0 mph12.9 kmh 30.25 in1024.4 mb 0.08 in2.0 mm 0.00 in0.0 mm 0.64 in16.3 mm
10:55 PM 65.4°F18.6°C -35.0°F-37.2°C 0% 3.0 mph ESE4.8 kmh ESE 8.0 mph12.9 kmh 30.25 in1024.4 mb 0.07 in1.8 mm 0.00 in0.0 mm 0.64 in16.3 mm
11:00 PM 65.5°F18.6°C -35.0°F-37.2°C 0% 2.0 mph ESE3.2 kmh ESE 5.0 mph8.0 kmh 30.25 in1024.4 mb 0.06 in1.5 mm 0.00 in0.0 mm 0.64 in16.3 mm
11:05 PM 65.6°F18.7°C -35.0°F-37.2°C 0% 3.0 mph SE4.8 kmh SE 7.0 mph11.3 kmh 30.24 in1024.0 mb 0.06 in1.5 mm 0.00 in0.0 mm 0.64 in16.3 mm
11:10 PM 65.7°F18.7°C -35.0°F-37.2°C 0% 4.0 mph SE6.4 kmh SE 10.0 mph16.1 kmh 30.23 in1023.7 mb 0.06 in1.5 mm 0.00 in0.0 mm 0.64 in16.3 mm
11:15 PM 65.6°F18.7°C -35.0°F-37.2°C 0% 6.0 mph SE9.7 kmh SE 11.0 mph17.7 kmh 30.23 in1023.7 mb 0.05 in1.3 mm 0.00 in0.0 mm 0.64 in16.3 mm
11:20 PM 65.4°F18.6°C -35.0°F-37.2°C 0% 7.0 mph SE11.3 kmh SE 11.0 mph17.7 kmh 30.23 in1023.7 mb 0.04 in1.0 mm 0.00 in0.0 mm 0.64 in16.3 mm
11:25 PM 65.4°F18.6°C -35.0°F-37.2°C 0% 7.0 mph SE11.3 kmh SE 11.0 mph17.7 kmh 30.23 in1023.7 mb 0.04 in1.0 mm 0.00 in0.0 mm 0.64 in16.3 mm
11:30 PM 65.4°F18.6°C -35.0°F-37.2°C 0% 6.0 mph SE9.7 kmh SE 11.0 mph17.7 kmh 30.23 in1023.7 mb 0.02 in0.5 mm 0.00 in0.0 mm 0.64 in16.3 mm
11:35 PM 65.4°F18.6°C -35.0°F-37.2°C 0% 5.0 mph SE8.0 kmh SE 11.0 mph17.7 kmh 30.23 in1023.7 mb 0.01 in0.3 mm 0.00 in0.0 mm 0.64 in16.3 mm
11:40 PM 65.4°F18.6°C -35.0°F-37.2°C 0% 5.0 mph SE8.0 kmh SE 12.0 mph19.3 kmh 30.23 in1023.7 mb 0.01 in0.3 mm 0.00 in0.0 mm 0.64 in16.3 mm
11:45 PM 65.5°F18.6°C -35.0°F-37.2°C 0% 6.0 mph SE9.7 kmh SE 12.0 mph19.3 kmh 30.22 in1023.4 mb 0.00 in0.0 mm 0.00 in0.0 mm 0.64 in16.3 mm
11:50 PM 65.5°F18.6°C -35.0°F-37.2°C 0% 6.0 mph SE9.7 kmh SE 12.0 mph19.3 kmh 30.22 in1023.4 mb 0.00 in0.0 mm 0.00 in0.0 mm 0.64 in16.3 mm
11:55 PM 65.4°F18.6°C -35.0°F-37.2°C 0% 7.0 mph SE11.3 kmh SE 12.0 mph19.3 kmh 30.22 in1023.4 mb 0.00 in0.0 mm 0.00 in0.0 mm 0.64 in16.3 mm